createdAt,value
2023-01-22T00:01:25.363Z,4.80
2023-01-22T00:06:27.859Z,4.50
2023-01-22T00:11:30.538Z,4.00
2023-01-22T00:16:33.043Z,3.87
2023-01-22T00:21:35.704Z,4.00
2023-01-22T00:26:38.455Z,4.20
2023-01-22T00:31:40.910Z,4.23
2023-01-22T00:36:43.361Z,4.10
2023-01-22T00:41:45.705Z,4.13
2023-01-22T00:46:48.307Z,4.37
2023-01-22T00:51:50.689Z,3.90
2023-01-22T00:56:53.030Z,4.13
2023-01-22T01:01:55.873Z,4.37
2023-01-22T01:06:58.333Z,4.70
2023-01-22T01:12:00.657Z,4.87
2023-01-22T01:17:03.024Z,5.23
2023-01-22T01:22:06.312Z,4.90
2023-01-22T01:27:09.101Z,5.93
2023-01-22T01:32:11.491Z,5.27
2023-01-22T01:37:13.831Z,5.83
2023-01-22T01:42:25.456Z,5.77
2023-01-22T01:47:34.380Z,5.57
2023-01-22T01:52:36.838Z,5.80
2023-01-22T01:57:41.362Z,5.73
2023-01-22T02:02:44.116Z,6.10
2023-01-22T02:07:47.450Z,5.60
2023-01-22T02:12:49.805Z,6.07
2023-01-22T02:17:52.165Z,6.27
2023-01-22T02:22:54.616Z,6.93
2023-01-22T02:27:57.288Z,6.63
2023-01-22T02:32:59.712Z,6.27
2023-01-22T02:38:02.552Z,7.20
2023-01-22T02:43:05.793Z,8.13
2023-01-22T02:48:09.750Z,7.60
2023-01-22T02:53:12.537Z,6.70
2023-01-22T02:58:17.181Z,6.73
2023-01-22T03:03:20.258Z,7.77
2023-01-22T03:08:26.678Z,7.83
2023-01-22T03:13:47.911Z,7.67
2023-01-22T03:19:09.036Z,6.60
2023-01-22T03:24:11.497Z,7.67
2023-01-22T03:29:14.240Z,8.10
2023-01-22T03:34:18.452Z,7.93
2023-01-22T03:39:20.914Z,7.33
2023-01-22T03:44:23.371Z,8.47
2023-01-22T03:49:25.933Z,7.93
2023-01-22T03:54:29.336Z,8.07
2023-01-22T03:59:34.039Z,7.93
2023-01-22T04:04:36.402Z,8.47
2023-01-22T04:09:38.908Z,8.37
2023-01-22T04:14:41.448Z,7.60
2023-01-22T04:19:43.840Z,7.37
2023-01-22T04:25:10.503Z,7.97
2023-01-22T04:30:14.077Z,8.57
2023-01-22T04:35:16.633Z,7.80
2023-01-22T04:40:45.253Z,8.10
2023-01-22T04:45:50.291Z,7.83
2023-01-22T04:50:55.648Z,8.40
2023-01-22T04:56:00.903Z,8.17
2023-01-22T05:01:03.879Z,8.97
2023-01-22T05:06:06.634Z,9.73
2023-01-22T05:11:11.283Z,9.70
2023-01-22T05:16:28.000Z,10.10
2023-01-22T05:21:30.399Z,10.70
2023-01-22T05:26:33.803Z,10.97
2023-01-22T05:31:45.605Z,9.63
2023-01-22T05:37:00.888Z,11.43
2023-01-22T05:42:05.966Z,10.97
2023-01-22T05:47:10.114Z,11.10
2023-01-22T05:52:41.627Z,11.33
2023-01-22T05:57:47.076Z,10.90
2023-01-22T06:02:58.812Z,11.20
2023-01-22T06:08:03.443Z,9.90
2023-01-22T06:13:14.322Z,11.13
2023-01-22T06:18:21.360Z,11.30
2023-01-22T06:23:26.028Z,9.73
2023-01-22T06:28:28.919Z,10.43
2023-01-22T06:33:36.296Z,10.17
2023-01-22T06:38:39.466Z,10.23
2023-01-22T06:43:44.499Z,9.37
2023-01-22T06:48:49.749Z,9.90
2023-01-22T06:53:52.332Z,9.93
2023-01-22T06:58:56.060Z,10.30
2023-01-22T07:03:58.528Z,11.10
2023-01-22T07:09:00.865Z,10.03
2023-01-22T07:14:03.195Z,9.80
2023-01-22T07:19:05.514Z,10.80
2023-01-22T07:24:07.895Z,12.00
2023-01-22T07:29:10.692Z,12.33
2023-01-22T07:34:13.532Z,12.90
2023-01-22T07:39:16.001Z,11.50
2023-01-22T07:44:18.432Z,12.30
2023-01-22T07:49:20.827Z,12.50
2023-01-22T07:54:23.633Z,12.27
2023-01-22T07:59:25.945Z,12.10
2023-01-22T08:04:28.384Z,12.13
2023-01-22T08:09:30.748Z,12.93
2023-01-22T08:14:33.081Z,12.43
2023-01-22T08:19:35.389Z,12.30
2023-01-22T08:24:37.759Z,13.10
2023-01-22T08:29:40.100Z,12.70
2023-01-22T08:34:43.116Z,13.57
2023-01-22T08:39:45.444Z,13.07
2023-01-22T08:44:47.782Z,13.07
2023-01-22T08:49:50.441Z,13.43
2023-01-22T08:54:52.833Z,13.90
2023-01-22T09:00:01.084Z,12.70
2023-01-22T09:05:04.267Z,13.37
2023-01-22T09:10:08.239Z,13.77
2023-01-22T09:15:11.037Z,13.07
2023-01-22T09:20:13.438Z,12.17
2023-01-22T09:25:16.255Z,14.10
2023-01-22T09:30:19.091Z,14.67
2023-01-22T09:35:22.124Z,13.57
2023-01-22T09:40:31.393Z,12.17
2023-01-22T09:45:38.623Z,12.20
2023-01-22T09:50:41.789Z,12.43
2023-01-22T09:55:51.043Z,14.10
2023-01-22T10:01:00.355Z,14.13
2023-01-22T10:06:18.323Z,12.70
2023-01-22T10:11:20.897Z,10.83
2023-01-22T10:16:23.545Z,12.73
2023-01-22T10:21:35.868Z,11.67
2023-01-22T10:26:48.194Z,11.43
2023-01-22T10:31:59.260Z,14.27
2023-01-22T10:37:16.029Z,11.87
2023-01-22T10:42:21.217Z,12.53
2023-01-22T10:47:27.513Z,13.73
2023-01-22T10:52:39.072Z,13.23
2023-01-22T10:57:55.959Z,11.90
2023-01-22T11:02:58.621Z,13.53
2023-01-22T11:08:11.314Z,12.27
2023-01-22T11:13:19.865Z,13.53
2023-01-22T11:18:49.305Z,12.13
2023-01-22T11:24:06.336Z,12.67
2023-01-22T11:29:39.521Z,11.47
2023-01-22T11:35:22.816Z,11.77
2023-01-22T11:40:30.182Z,12.37
2023-01-22T11:46:06.815Z,12.17
2023-01-22T11:51:29.359Z,12.00
2023-01-22T11:56:40.808Z,13.53
2023-01-22T12:02:14.374Z,13.73
2023-01-22T12:07:49.587Z,14.00
2023-01-22T12:13:07.373Z,11.53
2023-01-22T12:18:30.921Z,12.87
2023-01-22T12:23:54.934Z,12.30
2023-01-22T12:29:07.112Z,11.90
2023-01-22T12:34:33.887Z,12.40
2023-01-22T12:39:59.077Z,13.13
2023-01-22T12:45:23.175Z,12.87
2023-01-22T12:50:26.819Z,12.77
2023-01-22T12:55:35.019Z,13.33
2023-01-22T13:00:39.176Z,15.40
2023-01-22T13:05:46.962Z,13.40
2023-01-22T13:11:02.607Z,13.53
2023-01-22T13:16:07.213Z,14.83
2023-01-22T13:21:12.542Z,16.20
2023-01-22T13:26:23.969Z,16.77
2023-01-22T13:31:26.468Z,15.50
2023-01-22T13:36:28.913Z,17.17
2023-01-22T13:41:38.953Z,14.73
2023-01-22T13:46:41.516Z,14.63
2023-01-22T13:51:44.162Z,17.13
2023-01-22T13:56:46.629Z,14.90
2023-01-22T14:01:49.586Z,15.10
2023-01-22T14:06:51.973Z,15.80
2023-01-22T14:11:54.709Z,15.60
2023-01-22T14:16:57.177Z,14.90
2023-01-22T14:22:00.235Z,15.30
2023-01-22T14:27:02.602Z,15.53
2023-01-22T14:32:05.264Z,15.03
2023-01-22T14:37:07.615Z,14.90
2023-01-22T14:42:09.971Z,14.10
2023-01-22T14:47:12.450Z,14.23
2023-01-22T14:52:14.805Z,14.60
2023-01-22T14:57:17.191Z,15.27
2023-01-22T15:02:19.712Z,15.83
2023-01-22T15:07:22.108Z,15.70
2023-01-22T15:12:24.529Z,16.20
2023-01-22T15:17:26.906Z,16.07
2023-01-22T15:22:29.254Z,17.37
2023-01-22T15:27:31.626Z,17.33
2023-01-22T15:32:34.289Z,18.37
2023-01-22T15:37:36.695Z,18.83
2023-01-22T15:42:39.059Z,17.07
2023-01-22T15:47:41.988Z,18.57
2023-01-22T15:52:44.361Z,19.87
2023-01-22T15:57:46.693Z,18.03
2023-01-22T16:02:49.184Z,17.20
2023-01-22T16:07:52.627Z,18.33
2023-01-22T16:12:54.996Z,17.97
2023-01-22T16:17:58.103Z,18.43
2023-01-22T16:23:00.460Z,17.30
2023-01-22T16:28:02.783Z,19.10
2023-01-22T16:33:20.332Z,20.03
2023-01-22T16:38:22.668Z,17.73
2023-01-22T16:43:25.054Z,18.23
2023-01-22T16:48:27.876Z,18.37
2023-01-22T16:53:30.301Z,17.37
2023-01-22T16:58:32.640Z,19.40
2023-01-22T17:03:35.099Z,17.10
2023-01-22T17:08:37.428Z,17.30
2023-01-22T17:13:39.760Z,17.87
2023-01-22T17:18:42.451Z,18.13
2023-01-22T17:23:45.063Z,22.63
2023-01-22T17:28:47.553Z,17.23
2023-01-22T17:33:50.709Z,17.40
2023-01-22T17:38:54.548Z,16.43
2023-01-22T17:43:58.708Z,16.43
2023-01-22T17:49:04.478Z,16.57
2023-01-22T17:54:07.896Z,19.77
2023-01-22T17:59:10.917Z,18.47
2023-01-22T18:04:14.027Z,23.97
2023-01-22T18:09:17.333Z,19.43
2023-01-22T18:14:22.915Z,20.30
2023-01-22T18:19:25.295Z,21.23
2023-01-22T18:24:31.135Z,17.67
2023-01-22T18:29:33.534Z,16.77
2023-01-22T18:34:35.887Z,16.10
2023-01-22T18:39:40.579Z,16.33
2023-01-22T18:44:42.914Z,16.13
2023-01-22T18:49:46.042Z,15.87
2023-01-22T18:54:48.501Z,15.70
2023-01-22T18:59:51.554Z,17.03
2023-01-22T19:04:53.916Z,18.20
2023-01-22T19:09:56.245Z,17.17
2023-01-22T19:14:58.550Z,17.07
2023-01-22T19:20:01.482Z,17.87
2023-01-22T19:25:06.495Z,17.23
2023-01-22T19:30:10.484Z,16.47
2023-01-22T19:35:12.890Z,17.93
2023-01-22T19:40:15.405Z,20.63
2023-01-22T19:45:18.253Z,18.93
2023-01-22T19:50:23.017Z,17.90
2023-01-22T19:55:26.499Z,19.90
2023-01-22T20:00:28.956Z,21.40
2023-01-22T20:05:31.309Z,20.00
2023-01-22T20:10:34.155Z,17.80
2023-01-22T20:15:40.982Z,17.33
2023-01-22T20:20:43.392Z,21.43
2023-01-22T20:25:45.809Z,18.73
2023-01-22T20:31:04.234Z,17.73
2023-01-22T20:36:09.498Z,17.67
2023-01-22T20:41:13.211Z,16.83
2023-01-22T20:46:21.658Z,18.50
2023-01-22T20:51:27.743Z,18.80
2023-01-22T20:56:32.758Z,18.77
2023-01-22T21:01:35.294Z,19.00
2023-01-22T21:06:39.644Z,17.23
2023-01-22T21:11:42.547Z,18.27
2023-01-22T21:16:44.933Z,17.17
2023-01-22T21:21:47.692Z,17.27
2023-01-22T21:26:50.540Z,16.90
2023-01-22T21:31:54.147Z,15.67
2023-01-22T21:36:58.742Z,16.57
2023-01-22T21:42:19.867Z,15.57
2023-01-22T21:47:22.235Z,15.23
2023-01-22T21:52:25.194Z,15.87
2023-01-22T21:57:27.652Z,16.00
2023-01-22T22:02:30.098Z,14.77
2023-01-22T22:07:32.569Z,15.00
2023-01-22T22:12:34.928Z,15.03
2023-01-22T22:17:38.016Z,15.50
2023-01-22T22:22:40.450Z,16.57
2023-01-22T22:27:42.787Z,15.73
2023-01-22T22:32:45.114Z,16.77
2023-01-22T22:37:47.441Z,15.63
2023-01-22T22:42:49.769Z,16.07
2023-01-22T22:47:52.122Z,15.30
2023-01-22T22:52:54.821Z,15.07
2023-01-22T22:57:57.196Z,15.33
2023-01-22T23:02:59.584Z,15.53
2023-01-22T23:08:01.903Z,14.40
2023-01-22T23:13:04.506Z,13.97
2023-01-22T23:18:06.872Z,13.93
2023-01-22T23:23:09.166Z,13.20
2023-01-22T23:28:11.574Z,12.63
2023-01-22T23:33:14.048Z,11.77
2023-01-22T23:38:16.603Z,12.13
2023-01-22T23:43:18.952Z,10.93
2023-01-22T23:48:21.378Z,11.33
2023-01-22T23:53:24.049Z,10.43
2023-01-22T23:58:27.380Z,10.27
